createdAt,value
2023-02-15T00:00:45.557Z,103107.00
2023-02-15T00:02:47.028Z,103107.84
2023-02-15T00:04:48.573Z,103107.78
2023-02-15T00:06:50.657Z,103105.09
2023-02-15T00:08:52.418Z,103112.03
2023-02-15T00:10:54.245Z,103109.28
2023-02-15T00:12:55.673Z,103104.00
2023-02-15T00:14:57.142Z,103110.03
2023-02-15T00:17:00.742Z,103108.19
2023-02-15T00:19:02.891Z,103114.13
2023-02-15T00:21:09.659Z,103106.25
2023-02-15T00:23:11.101Z,103111.41
2023-02-15T00:25:12.573Z,103106.13
2023-02-15T00:27:14.065Z,103105.16
2023-02-15T00:29:17.534Z,103105.16
2023-02-15T00:31:19.381Z,103105.91
2023-02-15T00:33:20.860Z,103104.13
2023-02-15T00:35:22.550Z,103099.81
2023-02-15T00:37:24.020Z,103102.34
2023-02-15T00:39:25.595Z,103090.97
2023-02-15T00:41:27.116Z,103089.09
2023-02-15T00:43:30.833Z,103092.53
2023-02-15T00:45:32.285Z,103082.03
2023-02-15T00:47:33.760Z,103082.03
2023-02-15T00:49:35.233Z,103082.03
2023-02-15T00:51:36.877Z,103078.47
2023-02-15T00:53:38.349Z,103075.81
2023-02-15T00:55:41.250Z,103079.31
2023-02-15T00:57:42.686Z,103078.41
2023-02-15T00:59:44.150Z,103075.81
2023-02-15T01:01:45.696Z,103078.47
2023-02-15T01:03:47.690Z,103078.41
2023-02-15T01:05:50.326Z,103073.22
2023-02-15T01:07:54.057Z,103079.38
2023-02-15T01:09:55.897Z,103074.16
2023-02-15T01:11:57.382Z,103066.44
2023-02-15T01:13:59.526Z,103069.94
2023-02-15T01:16:01.770Z,103068.16
2023-02-15T01:18:03.655Z,103062.94
2023-02-15T01:20:06.131Z,103069.03
2023-02-15T01:22:07.601Z,103063.84
2023-02-15T01:24:14.351Z,103052.53
2023-02-15T01:26:16.385Z,103053.28
2023-02-15T01:28:17.895Z,103052.41
2023-02-15T01:30:19.585Z,103048.00
2023-02-15T01:32:21.118Z,103050.63
2023-02-15T01:34:22.585Z,103049.66
2023-02-15T01:36:24.148Z,103041.84
2023-02-15T01:38:25.589Z,103042.69
2023-02-15T01:40:27.081Z,103032.13
2023-02-15T01:42:29.885Z,103043.34
2023-02-15T01:44:51.723Z,103046.56
2023-02-15T01:46:54.676Z,103041.97
2023-02-15T01:49:26.128Z,103035.88
2023-02-15T01:51:31.718Z,103038.50
2023-02-15T01:53:48.577Z,103034.09
2023-02-15T01:56:31.484Z,103030.63
2023-02-15T01:58:35.886Z,103037.53
2023-02-15T02:00:37.508Z,103033.16
2023-02-15T02:02:39.727Z,103028.84
2023-02-15T02:04:44.664Z,103029.66
2023-02-15T02:06:48.934Z,103029.59
2023-02-15T02:08:50.750Z,103033.84
2023-02-15T02:10:52.188Z,103033.84
2023-02-15T02:12:58.821Z,103030.34
2023-02-15T02:15:00.413Z,103028.41
2023-02-15T02:17:07.548Z,103024.84
2023-02-15T02:19:52.144Z,103024.84
2023-02-15T02:22:16.455Z,103021.25
2023-02-15T02:24:33.664Z,103009.84
2023-02-15T02:26:47.226Z,103007.16
2023-02-15T02:29:10.017Z,103009.63
2023-02-15T02:31:39.471Z,103006.88
2023-02-15T02:33:49.578Z,103012.81
2023-02-15T02:36:12.761Z,103010.91
2023-02-15T02:38:36.732Z,103009.06
2023-02-15T02:40:51.673Z,103004.69
2023-02-15T02:43:15.684Z,103002.97
2023-02-15T02:45:26.388Z,103001.25
2023-02-15T02:47:34.122Z,102998.59
2023-02-15T02:49:38.541Z,102999.41
2023-02-15T02:51:40.007Z,102995.03
2023-02-15T02:53:41.867Z,103000.16
2023-02-15T02:55:50.499Z,103000.09
2023-02-15T02:57:56.848Z,102999.13
2023-02-15T03:00:00.581Z,102995.63
2023-02-15T03:02:41.613Z,102986.13
2023-02-15T03:04:58.882Z,102989.63
2023-02-15T03:07:08.500Z,102989.53
2023-02-15T03:09:19.119Z,102986.94
2023-02-15T03:11:20.569Z,102979.06
2023-02-15T03:13:23.152Z,102975.50
2023-02-15T03:15:50.538Z,102970.31
2023-02-15T03:17:58.572Z,102974.56
2023-02-15T03:20:05.396Z,102970.91
2023-02-15T03:22:20.356Z,102969.16
2023-02-15T03:24:27.433Z,102967.28
2023-02-15T03:26:31.358Z,102974.91
2023-02-15T03:28:39.503Z,102967.94
2023-02-15T03:30:45.621Z,102973.06
2023-02-15T03:32:49.803Z,102976.47
2023-02-15T03:34:51.470Z,102970.31
2023-02-15T03:37:00.703Z,102972.91
2023-02-15T03:39:13.280Z,102978.09
2023-02-15T03:41:17.145Z,102973.59
2023-02-15T03:43:54.021Z,102970.97
2023-02-15T03:46:01.533Z,102969.88
2023-02-15T03:48:06.295Z,102976.63
2023-02-15T03:50:35.216Z,102964.41
2023-02-15T03:52:37.875Z,102971.22
2023-02-15T03:54:43.665Z,102967.81
2023-02-15T03:57:05.334Z,102967.81
2023-02-15T03:59:25.468Z,102972.94
2023-02-15T04:01:56.565Z,102966.03
2023-02-15T04:04:08.476Z,102968.63
2023-02-15T04:06:09.942Z,102971.97
2023-02-15T04:08:12.637Z,102967.59
2023-02-15T04:10:32.903Z,102964.84
2023-02-15T04:12:34.404Z,102971.59
2023-02-15T04:14:54.646Z,102958.53
2023-02-15T04:16:56.165Z,102960.16
2023-02-15T04:19:16.218Z,102950.75
2023-02-15T04:21:36.549Z,102954.97
2023-02-15T04:23:56.248Z,102947.94
2023-02-15T04:25:57.685Z,102940.13
2023-02-15T04:27:59.132Z,102941.75
2023-02-15T04:30:00.657Z,102946.03
2023-02-15T04:32:03.285Z,102948.63
2023-02-15T04:34:04.777Z,102945.16
2023-02-15T04:36:06.359Z,102940.84
2023-02-15T04:38:07.829Z,102946.03
2023-02-15T04:40:11.655Z,102940.84
2023-02-15T04:42:13.133Z,102943.38
2023-02-15T04:44:14.673Z,102933.88
2023-02-15T04:46:16.177Z,102936.41
2023-02-15T04:48:18.674Z,102941.44
2023-02-15T04:50:20.178Z,102938.78
2023-02-15T04:52:21.975Z,102925.72
2023-02-15T04:54:23.520Z,102929.94
2023-02-15T04:56:25.041Z,102926.47
2023-02-15T04:58:26.485Z,102926.47
2023-02-15T05:00:28.468Z,102925.50
2023-02-15T05:02:29.943Z,102932.31
2023-02-15T05:04:31.661Z,102933.66
2023-02-15T05:06:33.148Z,102927.19
2023-02-15T05:08:34.615Z,102926.31
2023-02-15T05:10:36.044Z,102923.78
2023-02-15T05:12:37.557Z,102916.88
2023-02-15T05:14:38.976Z,102920.38
2023-02-15T05:16:40.509Z,102918.66
2023-02-15T05:18:42.102Z,102926.53
2023-02-15T05:20:43.646Z,102927.41
2023-02-15T05:22:45.166Z,102923.03
2023-02-15T05:25:05.316Z,102923.03
2023-02-15T05:27:25.114Z,102918.66
2023-02-15T05:29:26.557Z,102921.25
2023-02-15T05:31:28.609Z,102916.97
2023-02-15T05:33:30.354Z,102917.84
2023-02-15T05:35:33.024Z,102914.38
2023-02-15T05:37:34.817Z,102911.69
2023-02-15T05:39:36.270Z,102908.22
2023-02-15T05:41:37.745Z,102909.84
2023-02-15T05:43:39.830Z,102907.19
2023-02-15T05:45:41.337Z,102907.91
2023-02-15T05:47:43.371Z,102905.25
2023-02-15T05:49:44.793Z,102902.56
2023-02-15T05:51:46.326Z,102901.69
2023-02-15T05:53:47.789Z,102896.41
2023-02-15T05:55:49.252Z,102888.53
2023-02-15T05:57:50.729Z,102890.97
2023-02-15T05:59:52.172Z,102887.50
2023-02-15T06:01:53.620Z,102895.13
2023-02-15T06:03:56.726Z,102891.63
2023-02-15T06:05:58.208Z,102888.00
2023-02-15T06:07:59.794Z,102895.72
2023-02-15T06:10:01.242Z,102893.03
2023-02-15T06:12:03.160Z,102890.38
2023-02-15T06:14:04.743Z,102892.88
2023-02-15T06:16:07.070Z,102889.31
2023-02-15T06:18:08.823Z,102889.31
2023-02-15T06:20:10.896Z,102887.53
2023-02-15T06:22:14.900Z,102882.19
2023-02-15T06:24:16.654Z,102877.69
2023-02-15T06:26:18.076Z,102880.19
2023-02-15T06:28:19.583Z,102880.13
2023-02-15T06:30:21.395Z,102881.75
2023-02-15T06:32:22.959Z,102883.44
2023-02-15T06:34:24.529Z,102882.56
2023-02-15T06:36:26.020Z,102885.16
2023-02-15T06:38:27.842Z,102884.25
2023-02-15T06:40:29.270Z,102876.41
2023-02-15T06:42:31.295Z,102880.69
2023-02-15T06:44:32.762Z,102885.81
2023-02-15T06:46:34.386Z,102880.63
2023-02-15T06:48:36.329Z,102884.84
2023-02-15T06:50:38.625Z,102884.03
2023-02-15T06:52:40.068Z,102879.66
2023-02-15T06:54:41.615Z,102884.84
2023-02-15T06:56:44.501Z,102886.53
2023-02-15T06:58:50.430Z,102886.47
2023-02-15T07:00:52.723Z,102880.41
2023-02-15T07:02:56.643Z,102884.78
2023-02-15T07:04:58.228Z,102884.69
2023-02-15T07:06:59.697Z,102874.31
2023-02-15T07:09:01.222Z,102877.69
2023-02-15T07:11:23.070Z,102874.22
2023-02-15T07:13:24.511Z,102876.66
2023-02-15T07:15:26.030Z,102872.34
2023-02-15T07:17:36.941Z,102878.44
2023-02-15T07:19:38.574Z,102882.66
2023-02-15T07:21:40.065Z,102877.47
2023-02-15T07:23:41.600Z,102868.78
2023-02-15T07:25:43.067Z,102877.47
2023-02-15T07:27:45.750Z,102865.31
2023-02-15T07:29:47.361Z,102865.38
2023-02-15T07:31:48.825Z,102872.34
2023-02-15T07:33:50.259Z,102875.91
2023-02-15T07:35:58.859Z,102864.72
2023-02-15T07:38:01.002Z,102860.44
2023-02-15T07:40:02.501Z,102861.34
2023-02-15T07:42:04.023Z,102855.50
2023-02-15T07:44:05.693Z,102851.28
2023-02-15T07:46:13.290Z,102845.28
2023-02-15T07:48:14.769Z,102847.16
2023-02-15T07:50:16.325Z,102844.56
2023-02-15T07:52:17.777Z,102847.22
2023-02-15T07:54:19.320Z,102849.06
2023-02-15T07:56:20.795Z,102843.22
2023-02-15T07:58:22.239Z,102842.50
2023-02-15T08:00:26.755Z,102832.34
2023-02-15T08:02:29.893Z,102834.13
2023-02-15T08:04:32.131Z,102840.34
2023-02-15T08:06:36.144Z,102837.09
2023-02-15T08:08:38.636Z,102829.38
2023-02-15T08:10:58.644Z,102831.22
2023-02-15T08:13:00.158Z,102832.25
2023-02-15T08:15:01.613Z,102837.63
2023-02-15T08:17:05.890Z,102833.47
2023-02-15T08:19:08.811Z,102831.03
2023-02-15T08:21:10.272Z,102832.88
2023-02-15T08:23:11.720Z,102834.88
2023-02-15T08:25:13.321Z,102835.97
2023-02-15T08:27:14.780Z,102839.69
2023-02-15T08:29:19.326Z,102842.56
2023-02-15T08:31:21.859Z,102836.69
2023-02-15T08:33:23.472Z,102831.72
2023-02-15T08:35:24.948Z,102835.47
2023-02-15T08:37:26.984Z,102834.84
2023-02-15T08:39:28.798Z,102835.94
2023-02-15T08:41:38.406Z,102828.38
2023-02-15T08:43:40.103Z,102826.81
2023-02-15T08:45:42.443Z,102826.13
2023-02-15T08:47:43.935Z,102821.19
2023-02-15T08:49:45.386Z,102824.06
2023-02-15T08:51:48.084Z,102815.59
2023-02-15T08:53:52.102Z,102820.28
2023-02-15T08:55:58.141Z,102816.16
2023-02-15T08:57:59.611Z,102809.47
2023-02-15T09:00:01.102Z,102819.22
2023-02-15T09:02:03.949Z,102816.06
2023-02-15T09:04:09.582Z,102811.91
2023-02-15T09:06:11.934Z,102813.88
2023-02-15T09:08:13.421Z,102810.63
2023-02-15T09:10:14.893Z,102816.06
2023-02-15T09:12:16.330Z,102812.84
2023-02-15T09:14:24.428Z,102809.59
2023-02-15T09:16:28.988Z,102798.56
2023-02-15T09:18:32.739Z,102790.13
2023-02-15T09:20:37.330Z,102793.88
2023-02-15T09:22:38.808Z,102791.53
2023-02-15T09:24:40.345Z,102798.78
2023-02-15T09:26:44.589Z,102797.44
2023-02-15T09:28:47.006Z,102793.38
2023-02-15T09:30:48.595Z,102790.13
2023-02-15T09:32:50.189Z,102788.63
2023-02-15T09:34:51.639Z,102790.66
2023-02-15T09:36:53.148Z,102795.31
2023-02-15T09:38:59.336Z,102798.16
2023-02-15T09:41:28.391Z,102799.28
2023-02-15T09:43:59.241Z,102797.78
2023-02-15T09:46:23.583Z,102794.59
2023-02-15T09:48:46.190Z,102798.41
2023-02-15T09:51:32.834Z,102797.69
2023-02-15T09:53:36.900Z,102796.97
2023-02-15T09:55:58.165Z,102796.34
2023-02-15T09:58:13.978Z,102792.31
2023-02-15T10:00:53.619Z,102793.47
2023-02-15T10:03:20.777Z,102792.03
2023-02-15T10:05:40.499Z,102798.34
2023-02-15T10:07:41.904Z,102800.38
2023-02-15T10:09:47.936Z,102802.47
2023-02-15T10:12:04.734Z,102795.94
2023-02-15T10:14:45.366Z,102791.94
2023-02-15T10:17:22.631Z,102794.19
2023-02-15T10:19:45.547Z,102792.00
2023-02-15T10:22:05.811Z,102800.22
2023-02-15T10:24:31.114Z,102792.81
2023-02-15T10:26:43.625Z,102788.03
2023-02-15T10:28:47.987Z,102784.16
2023-02-15T10:30:52.609Z,102780.19
2023-02-15T10:33:11.693Z,102788.56
2023-02-15T10:35:32.012Z,102776.78
2023-02-15T10:37:54.503Z,102783.38
2023-02-15T10:40:08.434Z,102781.13
2023-02-15T10:42:27.474Z,102775.31
2023-02-15T10:45:05.317Z,102777.38
2023-02-15T10:47:22.897Z,102770.81
2023-02-15T10:49:42.459Z,102767.72
2023-02-15T10:51:50.098Z,102770.69
2023-02-15T10:54:23.853Z,102770.28
2023-02-15T10:56:33.970Z,102760.97
2023-02-15T10:58:59.927Z,102765.69
2023-02-15T11:01:27.880Z,102766.06
2023-02-15T11:03:47.816Z,102774.34
2023-02-15T11:06:14.605Z,102764.22
2023-02-15T11:08:16.635Z,102761.94
2023-02-15T11:10:39.199Z,102755.22
2023-02-15T11:12:44.249Z,102753.81
2023-02-15T11:14:51.971Z,102749.72
2023-02-15T11:17:05.868Z,102752.81
2023-02-15T11:19:25.189Z,102752.34
2023-02-15T11:21:48.130Z,102737.34
2023-02-15T11:23:50.202Z,102746.09
2023-02-15T11:25:59.901Z,102737.09
2023-02-15T11:28:05.538Z,102738.41
2023-02-15T11:30:15.641Z,102733.31
2023-02-15T11:32:31.119Z,102722.09
2023-02-15T11:34:37.421Z,102721.31
2023-02-15T11:36:42.087Z,102720.47
2023-02-15T11:38:45.762Z,102717.75
2023-02-15T11:40:49.086Z,102709.66
2023-02-15T11:42:54.858Z,102713.03
2023-02-15T11:45:32.413Z,102714.47
2023-02-15T11:47:34.090Z,102714.06
2023-02-15T11:49:36.426Z,102712.84
2023-02-15T11:51:38.019Z,102706.22
2023-02-15T11:53:40.049Z,102708.13
2023-02-15T11:55:47.244Z,102700.84
2023-02-15T11:58:27.164Z,102688.72
2023-02-15T12:00:44.216Z,102685.69
2023-02-15T12:02:54.428Z,102684.38
2023-02-15T12:05:02.198Z,102673.63
2023-02-15T12:07:23.495Z,102677.88
2023-02-15T12:09:41.780Z,102665.63
2023-02-15T12:11:43.261Z,102668.78
2023-02-15T12:14:12.713Z,102670.84
2023-02-15T12:16:14.498Z,102667.03
2023-02-15T12:18:40.446Z,102657.75
2023-02-15T12:20:42.334Z,102655.16
2023-02-15T12:22:51.637Z,102651.84
2023-02-15T12:24:59.729Z,102662.63
2023-02-15T12:27:19.656Z,102655.75
2023-02-15T12:29:27.105Z,102661.66
2023-02-15T12:31:44.825Z,102658.63
2023-02-15T12:33:46.951Z,102649.09
2023-02-15T12:35:50.842Z,102654.78
2023-02-15T12:37:56.168Z,102644.31
2023-02-15T12:40:00.044Z,102651.69
2023-02-15T12:42:17.583Z,102633.44
2023-02-15T12:44:27.674Z,102630.81
2023-02-15T12:46:29.247Z,102630.88
2023-02-15T12:48:30.710Z,102622.00
2023-02-15T12:50:35.289Z,102622.97
2023-02-15T12:52:36.858Z,102620.47
2023-02-15T12:54:42.983Z,102624.94
2023-02-15T12:56:44.502Z,102619.66
2023-02-15T12:58:47.002Z,102622.31
2023-02-15T13:00:48.834Z,102619.75
2023-02-15T13:02:56.073Z,102618.94
2023-02-15T13:05:05.912Z,102618.06
2023-02-15T13:07:12.004Z,102618.03
2023-02-15T13:09:21.003Z,102610.13
2023-02-15T13:11:25.851Z,102615.44
2023-02-15T13:13:33.021Z,102618.91
2023-02-15T13:15:41.573Z,102610.91
2023-02-15T13:17:44.933Z,102607.31
2023-02-15T13:19:50.945Z,102614.25
2023-02-15T13:21:54.249Z,102606.41
2023-02-15T13:24:26.761Z,102609.13
2023-02-15T13:26:32.245Z,102603.94
2023-02-15T13:28:48.103Z,102603.06
2023-02-15T13:30:50.278Z,102607.50
2023-02-15T13:32:57.084Z,102598.63
2023-02-15T13:35:00.535Z,102591.56
2023-02-15T13:37:43.370Z,102585.34
2023-02-15T13:39:52.485Z,102585.25
2023-02-15T13:42:06.877Z,102580.03
2023-02-15T13:44:35.601Z,102580.97
2023-02-15T13:46:55.378Z,102576.56
2023-02-15T13:48:59.696Z,102576.53
2023-02-15T13:51:25.889Z,102567.69
2023-02-15T13:53:57.072Z,102561.47
2023-02-15T13:56:22.074Z,102572.00
2023-02-15T13:58:45.542Z,102559.53
2023-02-15T14:01:02.465Z,102565.69
2023-02-15T14:03:28.318Z,102567.31
2023-02-15T14:06:07.498Z,102562.00
2023-02-15T14:08:27.693Z,102564.75
2023-02-15T14:10:41.261Z,102566.59
2023-02-15T14:12:57.924Z,102556.06
2023-02-15T14:15:21.234Z,102553.44
2023-02-15T14:17:59.847Z,102555.28
2023-02-15T14:20:07.927Z,102552.59
2023-02-15T14:22:35.447Z,102553.44
2023-02-15T14:24:52.378Z,102547.28
2023-02-15T14:27:13.768Z,102546.44
2023-02-15T14:29:20.992Z,102549.22
2023-02-15T14:31:31.611Z,102547.50
2023-02-15T14:33:40.922Z,102551.06
2023-02-15T14:35:43.848Z,102552.00
2023-02-15T14:37:51.485Z,102547.66
2023-02-15T14:40:21.162Z,102549.44
2023-02-15T14:42:44.640Z,102541.50
2023-02-15T14:44:58.104Z,102545.06
2023-02-15T14:47:03.665Z,102545.06
2023-02-15T14:49:26.615Z,102543.31
2023-02-15T14:51:46.900Z,102553.03
2023-02-15T14:53:48.459Z,102549.53
2023-02-15T14:56:11.218Z,102553.94
2023-02-15T14:58:14.544Z,102551.34
2023-02-15T15:00:37.724Z,102548.72
2023-02-15T15:02:53.375Z,102553.97
2023-02-15T15:05:33.565Z,102554.00
2023-02-15T15:07:48.597Z,102551.38
2023-02-15T15:10:00.756Z,102546.09
2023-02-15T15:12:14.456Z,102539.03
2023-02-15T15:14:34.327Z,102541.69
2023-02-15T15:16:38.909Z,102533.75
2023-02-15T15:18:46.513Z,102531.13
2023-02-15T15:20:51.628Z,102532.88
2023-02-15T15:23:15.513Z,102521.44
2023-02-15T15:25:38.765Z,102510.00
2023-02-15T15:27:49.662Z,102508.25
2023-02-15T15:29:51.138Z,102502.09
2023-02-15T15:31:56.486Z,102496.81
2023-02-15T15:34:22.727Z,102502.97
2023-02-15T15:36:51.458Z,102489.75
2023-02-15T15:39:16.702Z,102495.03
2023-02-15T15:41:29.041Z,102488.00
2023-02-15T15:43:51.490Z,102490.63
2023-02-15T15:46:18.993Z,102485.34
2023-02-15T15:48:31.646Z,102493.25
2023-02-15T15:50:33.539Z,102491.47
2023-02-15T15:52:39.598Z,102493.22
2023-02-15T15:54:43.012Z,102490.59
2023-02-15T15:56:52.011Z,102495.84
2023-02-15T15:58:59.684Z,102488.81
2023-02-15T16:01:28.104Z,102490.56
2023-02-15T16:03:29.843Z,102486.16
2023-02-15T16:05:41.079Z,102481.72
2023-02-15T16:07:42.673Z,102484.34
2023-02-15T16:09:59.638Z,102484.31
2023-02-15T16:12:02.836Z,102486.06
2023-02-15T16:14:04.345Z,102487.78
2023-02-15T16:16:07.496Z,102486.81
2023-02-15T16:18:16.132Z,102488.56
2023-02-15T16:20:27.821Z,102484.16
2023-02-15T16:22:30.017Z,102473.59
2023-02-15T16:25:06.138Z,102478.81
2023-02-15T16:27:33.966Z,102476.16
2023-02-15T16:29:35.575Z,102468.22
2023-02-15T16:31:37.242Z,102469.91
2023-02-15T16:33:40.532Z,102467.25
2023-02-15T16:35:57.263Z,102466.31
2023-02-15T16:37:58.774Z,102482.94
2023-02-15T16:40:00.962Z,102483.75
2023-02-15T16:42:05.246Z,102474.97
2023-02-15T16:44:15.840Z,102475.81
2023-02-15T16:46:40.424Z,102486.31
2023-02-15T16:48:46.028Z,102488.84
2023-02-15T16:50:51.520Z,102482.66
2023-02-15T16:52:53.335Z,102486.13
2023-02-15T16:54:58.950Z,102489.63
2023-02-15T16:57:00.788Z,102482.56
2023-02-15T16:59:02.873Z,102479.91
2023-02-15T17:01:08.867Z,102489.53
2023-02-15T17:03:13.334Z,102485.94
2023-02-15T17:05:20.863Z,102485.91
2023-02-15T17:07:22.594Z,102484.06
2023-02-15T17:09:26.319Z,102484.03
2023-02-15T17:11:42.305Z,102492.75
2023-02-15T17:14:07.671Z,102486.59
2023-02-15T17:16:34.279Z,102483.91
2023-02-15T17:18:38.489Z,102488.22
2023-02-15T17:20:42.905Z,102477.66
2023-02-15T17:22:44.382Z,102482.88
2023-02-15T17:24:48.972Z,102488.09
2023-02-15T17:27:00.695Z,102474.84
2023-02-15T17:29:11.301Z,102473.94
2023-02-15T17:31:17.274Z,102467.75
2023-02-15T17:33:29.892Z,102465.06
2023-02-15T17:35:33.709Z,102459.72
2023-02-15T17:37:38.122Z,102457.91
2023-02-15T17:39:41.361Z,102459.59
2023-02-15T17:41:42.980Z,102470.06
2023-02-15T17:43:44.399Z,102472.66
2023-02-15T17:45:50.111Z,102472.63
2023-02-15T17:47:51.882Z,102464.66
2023-02-15T17:49:53.638Z,102462.88
2023-02-15T17:51:55.173Z,102461.09
2023-02-15T17:54:15.346Z,102462.78
2023-02-15T17:56:16.764Z,102465.34
2023-02-15T17:58:19.598Z,102456.56
2023-02-15T18:00:40.039Z,102464.38
2023-02-15T18:03:00.669Z,102461.72
2023-02-15T18:05:20.518Z,102465.16
2023-02-15T18:07:40.291Z,102459.84
2023-02-15T18:10:00.812Z,102465.91
2023-02-15T18:12:03.251Z,102464.06
2023-02-15T18:14:07.215Z,102464.06
2023-02-15T18:16:22.843Z,102459.63
2023-02-15T18:18:24.440Z,102454.34
2023-02-15T18:20:32.691Z,102452.53
2023-02-15T18:22:34.221Z,102443.72
2023-02-15T18:24:35.679Z,102432.31
2023-02-15T18:26:37.166Z,102440.16
2023-02-15T18:28:38.654Z,102431.31
2023-02-15T18:30:45.071Z,102438.28
2023-02-15T18:32:48.297Z,102432.97
2023-02-15T18:34:49.793Z,102444.31
2023-02-15T18:36:52.343Z,102443.38
2023-02-15T18:38:57.890Z,102448.50
2023-02-15T18:40:59.381Z,102449.28
2023-02-15T18:43:00.909Z,102450.13
2023-02-15T18:45:12.368Z,102449.19
2023-02-15T18:47:13.841Z,102443.88
2023-02-15T18:49:15.294Z,102447.28
2023-02-15T18:51:21.638Z,102450.75
2023-02-15T18:53:23.332Z,102461.13
2023-02-15T18:55:27.964Z,102459.31
2023-02-15T18:57:30.305Z,102462.75
2023-02-15T18:59:32.497Z,102463.53
2023-02-15T19:01:34.011Z,102467.78
2023-02-15T19:03:35.491Z,102467.66
2023-02-15T19:05:37.024Z,102472.84
2023-02-15T19:07:39.294Z,102471.91
2023-02-15T19:09:41.374Z,102475.34
2023-02-15T19:11:48.155Z,102472.63
2023-02-15T19:13:52.301Z,102468.22
2023-02-15T19:15:53.768Z,102466.38
2023-02-15T19:17:55.724Z,102463.69
2023-02-15T19:19:57.182Z,102468.88
2023-02-15T19:21:58.742Z,102467.88
2023-02-15T19:24:05.336Z,102473.06
2023-02-15T19:26:06.824Z,102477.34
2023-02-15T19:28:33.178Z,102465.97
2023-02-15T19:30:34.676Z,102462.41
2023-02-15T19:32:36.208Z,102464.09
2023-02-15T19:34:37.816Z,102463.16
2023-02-15T19:36:39.611Z,102466.59
2023-02-15T19:38:41.727Z,102472.63
2023-02-15T19:40:43.552Z,102469.03
2023-02-15T19:42:45.023Z,102470.75
2023-02-15T19:44:46.489Z,102476.78
2023-02-15T19:46:48.404Z,102480.22
2023-02-15T19:48:51.078Z,102469.72
2023-02-15T19:50:52.922Z,102464.41
2023-02-15T19:52:54.504Z,102469.50
2023-02-15T19:54:56.066Z,102462.47
2023-02-15T19:56:57.800Z,102462.44
2023-02-15T19:58:59.339Z,102464.13
2023-02-15T20:01:02.258Z,102469.34
2023-02-15T20:03:03.937Z,102464.00
2023-02-15T20:05:05.833Z,102455.25
2023-02-15T20:07:16.548Z,102461.28
2023-02-15T20:09:25.357Z,102455.09
2023-02-15T20:11:26.762Z,102447.09
2023-02-15T20:13:29.016Z,102446.22
2023-02-15T20:15:33.643Z,102441.78
2023-02-15T20:17:35.173Z,102440.00
2023-02-15T20:19:39.000Z,102451.28
2023-02-15T20:21:41.678Z,102448.56
2023-02-15T20:23:43.169Z,102445.03
2023-02-15T20:25:44.867Z,102437.13
2023-02-15T20:27:47.255Z,102435.38
2023-02-15T20:29:50.462Z,102444.06
2023-02-15T20:31:55.206Z,102442.28
2023-02-15T20:33:58.514Z,102441.41
2023-02-15T20:36:00.078Z,102446.59
2023-02-15T20:38:04.215Z,102444.88
2023-02-15T20:40:17.874Z,102450.06
2023-02-15T20:42:19.653Z,102452.66
2023-02-15T20:44:31.073Z,102443.03
2023-02-15T20:46:32.569Z,102449.09
2023-02-15T20:48:34.100Z,102445.56
2023-02-15T20:50:35.777Z,102454.19
2023-02-15T20:52:37.304Z,102446.38
2023-02-15T20:54:39.267Z,102456.78
2023-02-15T20:56:40.834Z,102450.66
2023-02-15T20:58:42.467Z,102457.63
2023-02-15T21:00:43.961Z,102459.31
2023-02-15T21:02:47.354Z,102454.94
2023-02-15T21:04:49.164Z,102455.78
2023-02-15T21:06:50.951Z,102453.19
2023-02-15T21:08:52.424Z,102459.25
2023-02-15T21:10:54.701Z,102452.25
2023-02-15T21:12:58.550Z,102461.78
2023-02-15T21:14:59.998Z,102452.16
2023-02-15T21:17:01.477Z,102454.69
2023-02-15T21:19:02.950Z,102456.38
2023-02-15T21:21:06.419Z,102453.72
2023-02-15T21:23:13.801Z,102448.50
2023-02-15T21:25:20.239Z,102436.25
2023-02-15T21:27:22.324Z,102444.09
2023-02-15T21:29:26.839Z,102440.59
2023-02-15T21:31:28.715Z,102443.19
2023-02-15T21:33:30.298Z,102441.44
2023-02-15T21:35:31.762Z,102438.75
2023-02-15T21:37:36.376Z,102436.97
2023-02-15T21:39:37.903Z,102440.41
2023-02-15T21:42:04.421Z,102447.31
2023-02-15T21:44:39.468Z,102449.00
2023-02-15T21:46:59.426Z,102439.41
2023-02-15T21:49:04.729Z,102438.44
2023-02-15T21:51:24.708Z,102441.91
2023-02-15T21:53:34.635Z,102436.66
2023-02-15T21:55:36.121Z,102437.53
2023-02-15T21:57:37.558Z,102440.94
2023-02-15T21:59:39.002Z,102433.06
2023-02-15T22:01:42.862Z,102437.41
2023-02-15T22:03:44.338Z,102424.28
2023-02-15T22:05:45.820Z,102432.06
2023-02-15T22:07:47.799Z,102424.19
2023-02-15T22:09:49.389Z,102418.06
2023-02-15T22:11:52.841Z,102414.53
2023-02-15T22:13:54.363Z,102414.44
2023-02-15T22:15:56.774Z,102412.66
2023-02-15T22:17:58.223Z,102423.84
2023-02-15T22:20:00.011Z,102414.28
2023-02-15T22:22:01.494Z,102409.91
2023-02-15T22:24:03.049Z,102416.88
2023-02-15T22:26:14.378Z,102416.88
2023-02-15T22:28:16.852Z,102413.41
2023-02-15T22:30:32.847Z,102415.94
2023-02-15T22:32:34.443Z,102416.75
2023-02-15T22:34:36.091Z,102409.75
2023-02-15T22:36:38.876Z,102417.59
2023-02-15T22:38:40.323Z,102408.00
2023-02-15T22:40:41.875Z,102414.09
2023-02-15T22:42:47.322Z,102407.13
2023-02-15T22:44:48.869Z,102415.75
2023-02-15T22:46:51.204Z,102412.25
2023-02-15T22:48:52.961Z,102415.72
2023-02-15T22:50:54.971Z,102415.72
2023-02-15T22:52:56.772Z,102414.88
2023-02-15T22:54:58.222Z,102410.50
2023-02-15T22:57:00.801Z,102407.00
2023-02-15T22:59:05.946Z,102410.50
2023-02-15T23:01:21.766Z,102406.94
2023-02-15T23:03:28.830Z,102408.72
2023-02-15T23:05:31.252Z,102409.56
2023-02-15T23:07:32.834Z,102415.66
2023-02-15T23:09:34.291Z,102413.94
2023-02-15T23:11:35.846Z,102406.13
2023-02-15T23:13:38.108Z,102403.53
2023-02-15T23:15:41.663Z,102407.03
2023-02-15T23:17:43.124Z,102398.34
2023-02-15T23:19:44.719Z,102389.69
2023-02-15T23:21:46.478Z,102391.63
2023-02-15T23:23:54.320Z,102394.28
2023-02-15T23:25:56.180Z,102400.34
2023-02-15T23:27:57.651Z,102409.06
2023-02-15T23:29:59.128Z,102406.47
2023-02-15T23:32:00.770Z,102406.47
2023-02-15T23:34:13.793Z,102410.75
2023-02-15T23:36:24.517Z,102408.91
2023-02-15T23:38:30.894Z,102418.44
2023-02-15T23:40:50.739Z,102418.44
2023-02-15T23:42:52.221Z,102418.44
2023-02-15T23:44:53.685Z,102426.19
2023-02-15T23:46:56.558Z,102424.34
2023-02-15T23:48:58.078Z,102420.78
2023-02-15T23:50:59.887Z,102415.47
2023-02-15T23:53:01.357Z,102418.03
2023-02-15T23:55:02.815Z,102417.13
2023-02-15T23:57:04.583Z,102411.84
2023-02-15T23:59:06.658Z,102416.16
